Time;durP1;ratioP1;P1;durP2;ratioP2;P2;SDS_P1;SDS_P2;PMS_P1;PMS_P2;Temp;Humidity;BMP_temperature;BMP_pressure;BME280_temperature;BME280_humidity;BME280_pressure;Samples;Min_cycle;Max_cycle;Signal;HPM_P1;HPM_P2
2021/04/01 00:00:38;;;;;;;38.25;20.05;;;14.60;59.50;;;;;;4762553;30;20051;-78
2021/04/01 00:03:05;;;;;;;50.92;28.25;;;14.60;59.50;;;;;;4760888;30;20499;-78
2021/04/01 00:05:35;;;;;;;42.25;22.95;;;14.60;59.70;;;;;;4762593;30;20972;-78
2021/04/01 00:08:02;;;;;;;38.40;21.42;;;14.60;59.70;;;;;;4763928;30;20425;-79
2021/04/01 00:10:31;;;;;;;41.38;22.63;;;14.60;59.90;;;;;;4765339;29;20415;-78
2021/04/01 00:13:04;;;;;;;42.58;22.95;;;14.60;60.10;;;;;;4761465;30;20230;-78
2021/04/01 00:15:33;;;;;;;42.20;21.67;;;14.60;59.90;;;;;;4768862;30;20047;-78
2021/04/01 00:18:00;;;;;;;43.40;22.77;;;14.60;59.80;;;;;;4748832;30;20496;-78
2021/04/01 00:20:27;;;;;;;44.92;22.05;;;14.70;59.70;;;;;;4763300;30;20579;-78
2021/04/01 00:22:54;;;;;;;44.33;23.60;;;14.70;59.60;;;;;;4752495;30;20443;-78
2021/04/01 00:25:22;;;;;;;44.45;23.70;;;14.70;59.80;;;;;;4748667;30;20051;-78
2021/04/01 00:27:48;;;;;;;45.72;24.67;;;14.70;59.90;;;;;;4764607;30;20051;-78
2021/04/01 00:30:15;;;;;;;40.63;22.13;;;14.70;60.10;;;;;;4748806;30;20035;-78
2021/04/01 00:32:42;;;;;;;42.80;22.15;;;14.70;60.30;;;;;;4760791;30;20052;-78
2021/04/01 00:35:09;;;;;;;41.42;22.08;;;14.70;60.40;;;;;;4736731;30;20047;-78
2021/04/01 00:37:35;;;;;;;41.75;23.30;;;14.70;60.50;;;;;;4777329;29;20043;-79
2021/04/01 00:40:03;;;;;;;39.50;21.58;;;14.70;60.60;;;;;;4763272;30;20076;-79
2021/04/01 00:42:29;;;;;;;41.60;22.40;;;14.70;60.40;;;;;;4761433;30;20067;-78
2021/04/01 00:45:11;;;;;;;39.47;21.38;;;14.70;60.50;;;;;;4764187;30;20059;-78
2021/04/01 00:47:40;;;;;;;44.60;22.50;;;14.70;60.80;;;;;;4747590;30;20048;-78
2021/04/01 00:50:11;;;;;;;40.13;20.30;;;14.70;60.70;;;;;;4777253;29;20051;-78
2021/04/01 00:52:38;;;;;;;42.90;22.65;;;14.60;60.70;;;;;;4760930;30;20047;-79
2021/04/01 00:55:07;;;;;;;38.78;20.40;;;14.60;60.80;;;;;;4763268;30;20571;-78
2021/04/01 00:57:36;;;;;;;38.03;21.05;;;14.60;60.80;;;;;;4748065;30;20511;-78
2021/04/01 01:00:06;;;;;;;43.53;22.27;;;14.60;60.70;;;;;;4762908;30;20579;-79
2021/04/01 01:02:33;;;;;;;38.13;20.85;;;14.60;60.80;;;;;;4761328;30;20051;-79
2021/04/01 01:05:01;;;;;;;51.10;27.88;;;14.60;60.90;;;;;;4762521;30;20420;-78
2021/04/01 01:07:28;;;;;;;44.65;23.67;;;14.60;61.40;;;;;;4761848;30;20051;-79
2021/04/01 01:09:55;;;;;;;38.85;21.20;;;14.50;61.50;;;;;;4762837;30;20043;-79
2021/04/01 01:12:21;;;;;;;40.58;21.33;;;14.50;61.50;;;;;;4738654;30;20389;-79
2021/04/01 01:14:48;;;;;;;39.60;21.17;;;14.50;61.50;;;;;;4762465;30;20106;-76
2021/04/01 01:17:15;;;;;;;44.53;22.63;;;14.50;61.50;;;;;;4760686;30;20503;-75
2021/04/01 01:19:50;;;;;;;42.58;21.48;;;14.50;61.60;;;;;;4761432;30;20064;-79
2021/04/01 01:22:18;;;;;;;38.10;20.00;;;14.50;61.70;;;;;;4760621;30;20055;-79
2021/04/01 01:24:46;;;;;;;41.35;20.67;;;14.50;61.50;;;;;;4762795;30;20051;-78
2021/04/01 01:27:13;;;;;;;36.00;20.20;;;14.50;61.50;;;;;;4761361;30;20546;-78
2021/04/01 01:29:40;;;;;;;33.92;18.52;;;14.50;61.60;;;;;;4764778;29;20052;-78
2021/04/01 01:32:08;;;;;;;44.75;22.67;;;14.40;61.70;;;;;;4761993;30;20044;-78
2021/04/01 01:34:36;;;;;;;45.08;23.27;;;14.40;61.80;;;;;;4763613;30;20048;-78
2021/04/01 01:37:03;;;;;;;56.25;30.55;;;14.40;61.90;;;;;;4766015;30;20500;-79
2021/04/01 01:39:30;;;;;;;52.00;27.83;;;14.40;62.80;;;;;;4766892;30;20055;-78
2021/04/01 01:41:57;;;;;;;50.33;26.48;;;14.40;63.00;;;;;;4748348;30;20052;-78
2021/04/01 01:44:24;;;;;;;41.70;22.40;;;14.30;63.00;;;;;;4732891;30;20060;-78
2021/04/01 01:46:50;;;;;;;37.88;20.73;;;14.30;63.10;;;;;;4762488;30;20044;-75
2021/04/01 01:49:17;;;;;;;39.55;22.25;;;14.20;63.00;;;;;;4762863;30;20051;-76
2021/04/01 01:51:43;;;;;;;40.63;22.67;;;14.30;63.00;;;;;;4747464;30;20040;-79
2021/04/01 01:54:10;;;;;;;43.35;23.08;;;14.30;63.10;;;;;;4747586;30;20044;-78
2021/04/01 01:56:38;;;;;;;41.05;21.40;;;14.20;63.20;;;;;;4747076;30;20056;-78
2021/04/01 01:59:05;;;;;;;41.03;21.80;;;14.20;63.20;;;;;;4760583;30;20044;-75
2021/04/01 02:01:32;;;;;;;43.83;24.23;;;14.20;63.20;;;;;;4732864;30;20069;-75
2021/04/01 02:04:03;;;;;;;48.30;25.58;;;14.20;63.20;;;;;;4746498;30;20812;-79
2021/04/01 02:06:31;;;;;;;46.40;25.50;;;14.30;63.10;;;;;;4750048;30;20055;-79
2021/04/01 02:08:59;;;;;;;49.72;26.65;;;14.30;62.80;;;;;;4754395;30;20044;-78
2021/04/01 02:11:27;;;;;;;56.08;28.63;;;14.40;62.50;;;;;;4760367;30;20047;-78
2021/04/01 02:13:55;;;;;;;46.00;23.98;;;14.50;62.50;;;;;;4760859;30;20428;-78
2021/04/01 02:16:22;;;;;;;45.15;23.67;;;14.50;62.30;;;;;;4761006;30;20423;-79
2021/04/01 02:18:49;;;;;;;42.20;22.15;;;14.50;62.30;;;;;;4762129;30;20409;-78
2021/04/01 02:21:18;;;;;;;42.20;22.45;;;14.50;62.30;;;;;;4762559;30;20078;-78
2021/04/01 02:23:45;;;;;;;47.42;24.27;;;14.40;62.20;;;;;;4760945;30;20043;-78
2021/04/01 02:26:11;;;;;;;46.75;25.35;;;14.40;62.20;;;;;;4747928;30;20051;-78
2021/04/01 02:28:38;;;;;;;46.78;23.98;;;14.50;62.40;;;;;;4763000;30;20056;-78
2021/04/01 02:31:06;;;;;;;52.75;27.95;;;14.40;62.40;;;;;;4749908;30;20044;-79
2021/04/01 02:33:36;;;;;;;48.08;24.60;;;14.40;62.30;;;;;;4761338;30;20408;-76
2021/04/01 02:36:04;;;;;;;45.33;21.98;;;14.50;62.10;;;;;;4759463;30;20500;-76
2021/04/01 02:38:31;;;;;;;46.85;22.92;;;14.50;61.80;;;;;;4760808;30;20058;-76
2021/04/01 02:40:58;;;;;;;40.17;21.55;;;14.60;61.60;;;;;;4759116;30;20048;-76
2021/04/01 02:43:34;;;;;;;44.05;21.77;;;14.60;61.40;;;;;;4759364;30;20052;-78
2021/04/01 02:46:02;;;;;;;52.08;26.63;;;14.60;61.30;;;;;;4760565;30;20048;-77
2021/04/01 02:48:29;;;;;;;49.08;25.40;;;14.50;61.40;;;;;;4761620;30;20036;-79
2021/04/01 02:50:56;;;;;;;45.13;25.77;;;14.50;61.70;;;;;;4761141;30;20040;-76
2021/04/01 02:53:23;;;;;;;42.35;24.15;;;14.40;61.90;;;;;;4757395;30;20047;-78
2021/04/01 02:55:49;;;;;;;57.33;28.95;;;14.30;62.00;;;;;;4762706;30;20047;-79
2021/04/01 02:58:17;;;;;;;63.47;32.17;;;14.20;61.90;;;;;;4746737;30;20043;-79
2021/04/01 03:00:44;;;;;;;54.63;29.00;;;14.20;61.70;;;;;;4761334;30;20047;-79
2021/04/01 03:05:38;;;;;;;56.05;28.15;;;14.30;61.10;;;;;;4761080;30;20059;-78
2021/04/01 03:08:05;;;;;;;55.67;27.75;;;14.30;61.60;;;;;;4762523;30;20040;-78
2021/04/01 03:10:34;;;;;;;53.13;27.27;;;14.30;60.70;;;;;;4761580;30;20416;-78
2021/04/01 03:13:00;;;;;;;46.30;23.10;;;14.20;60.60;;;;;;4749821;30;20052;-79
2021/04/01 03:15:27;;;;;;;51.25;25.42;;;14.20;60.60;;;;;;4765403;30;20048;-79
2021/04/01 03:17:53;;;;;;;45.35;24.50;;;14.20;60.70;;;;;;4763185;30;20520;-79
2021/04/01 03:20:20;;;;;;;46.95;24.65;;;14.10;60.80;;;;;;4764937;30;20039;-79
2021/04/01 03:22:47;;;;;;;49.75;25.65;;;14.00;60.90;;;;;;4762582;30;20059;-79
2021/04/01 03:25:14;;;;;;;52.35;27.80;;;13.90;61.20;;;;;;4764765;30;20052;-78
2021/04/01 03:27:40;;;;;;;53.95;29.35;;;13.80;61.60;;;;;;4764428;30;20078;-78
2021/04/01 03:30:13;;;;;;;56.53;29.70;;;13.60;62.00;;;;;;4764943;30;20047;-78
2021/04/01 03:32:43;;;;;;;57.50;29.77;;;13.50;62.40;;;;;;4776319;30;20725;-78
2021/04/01 03:35:12;;;;;;;52.42;27.98;;;13.40;63.00;;;;;;4764731;30;20067;-78
2021/04/01 03:37:40;;;;;;;48.97;26.38;;;13.30;63.10;;;;;;4765525;30;20055;-78
2021/04/01 03:40:07;;;;;;;45.70;23.92;;;13.20;63.40;;;;;;4752000;30;20048;-78
2021/04/01 03:42:37;;;;;;;46.80;23.88;;;13.10;63.50;;;;;;4762509;30;20043;-79
2021/04/01 03:45:05;;;;;;;48.67;25.20;;;13.00;63.70;;;;;;4762696;30;20059;-79
2021/04/01 03:47:32;;;;;;;48.60;24.35;;;12.90;63.90;;;;;;4775187;29;20052;-79
2021/04/01 03:49:58;;;;;;;52.85;27.13;;;12.80;64.10;;;;;;4762667;30;20047;-78
2021/04/01 03:52:26;;;;;;;52.05;26.45;;;12.80;64.60;;;;;;4761649;30;20136;-78
2021/04/01 03:54:56;;;;;;;48.50;25.45;;;12.70;64.90;;;;;;4763505;30;20059;-78
2021/04/01 03:57:23;;;;;;;50.63;24.75;;;12.60;65.20;;;;;;4765213;30;20043;-78
2021/04/01 04:10:22;;;;;;;39.65;19.95;;;12.40;65.80;;;;;;4763720;30;20048;-78
2021/04/01 04:15:33;;;;;;;42.40;21.80;;;12.30;66.20;;;;;;4763672;30;20087;-78
2021/04/01 04:18:00;;;;;;;45.22;21.98;;;12.20;66.30;;;;;;4749111;30;20934;-78
2021/04/01 04:20:27;;;;;;;42.35;20.73;;;12.20;66.30;;;;;;4749106;30;20050;-78
2021/04/01 04:22:54;;;;;;;40.90;21.00;;;12.20;66.40;;;;;;4749290;30;20071;-75
2021/04/01 04:25:20;;;;;;;33.38;18.05;;;12.10;66.50;;;;;;4747439;30;20071;-78
2021/04/01 04:30:14;;;;;;;38.08;19.50;;;12.00;66.80;;;;;;4763053;30;20052;-78
2021/04/01 04:32:41;;;;;;;37.78;19.38;;;12.00;66.90;;;;;;4741469;30;20597;-78
2021/04/01 04:35:08;;;;;;;33.80;17.15;;;11.90;67.10;;;;;;4763298;30;20505;-78
2021/04/01 04:37:34;;;;;;;35.25;18.70;;;11.90;67.30;;;;;;4762949;30;20218;-78
2021/04/01 04:40:01;;;;;;;49.95;24.95;;;11.80;67.50;;;;;;4763526;30;20059;-78
2021/04/01 04:42:27;;;;;;;48.90;23.00;;;11.80;68.00;;;;;;4745961;30;20047;-77
2021/04/01 04:44:54;;;;;;;61.28;28.05;;;11.80;68.20;;;;;;4763480;30;20055;-78
2021/04/01 04:47:20;;;;;;;56.53;28.08;;;11.80;68.50;;;;;;4760342;30;20396;-77
2021/04/01 04:49:47;;;;;;;57.90;26.50;;;11.80;68.60;;;;;;4747293;30;20051;-76
2021/04/01 04:52:13;;;;;;;54.60;25.40;;;12.00;68.70;;;;;;4761127;30;20412;-79
2021/04/01 04:54:41;;;;;;;50.38;22.55;;;12.00;68.50;;;;;;4747512;30;20040;-77
2021/04/01 05:05:00;;;;;;;41.30;19.85;;;12.10;68.30;;;;;;4760833;30;20056;-77
2021/04/01 05:07:27;;;;;;;49.85;23.25;;;12.00;68.30;;;;;;4764696;30;21399;-78
2021/04/01 05:09:53;;;;;;;48.70;22.65;;;12.00;68.50;;;;;;4762902;30;20040;-79
2021/04/01 05:12:20;;;;;;;51.10;23.90;;;12.00;68.60;;;;;;4744895;30;20052;-78
2021/04/01 05:14:46;;;;;;;47.25;21.85;;;12.00;68.70;;;;;;4748270;30;20062;-78
2021/04/01 05:17:18;;;;;;;52.20;24.02;;;12.00;68.60;;;;;;4747745;30;20059;-79
2021/04/01 05:19:46;;;;;;;48.47;23.02;;;12.00;68.80;;;;;;4762162;30;20051;-76
2021/04/01 05:22:31;;;;;;;53.92;26.80;;;12.00;68.90;;;;;;4745632;30;20043;-78
2021/04/01 05:24:58;;;;;;;47.95;22.80;;;12.00;69.20;;;;;;4759173;30;20048;-77
2021/04/01 05:27:28;;;;;;;47.95;23.40;;;11.90;69.30;;;;;;4746725;30;20044;-78
2021/04/01 05:30:02;;;;;;;46.92;23.05;;;11.90;69.40;;;;;;4761367;30;20080;-78
2021/04/01 05:32:38;;;;;;;46.70;21.98;;;11.90;69.70;;;;;;4743097;30;20497;-78
2021/04/01 05:35:11;;;;;;;49.13;23.25;;;11.80;70.00;;;;;;4774220;30;20056;-78
2021/04/01 05:37:38;;;;;;;49.80;23.50;;;11.80;70.20;;;;;;4760634;30;20039;-78
2021/04/01 05:40:06;;;;;;;37.65;18.40;;;11.80;70.30;;;;;;4761625;30;20044;-78
2021/04/01 05:42:37;;;;;;;46.55;22.17;;;11.80;70.90;;;;;;4759725;30;20048;-78
2021/04/01 05:47:40;;;;;;;52.47;27.48;;;11.80;70.90;;;;;;4765453;29;20510;-78
2021/04/01 05:50:29;;;;;;;56.45;25.55;;;11.80;71.00;;;;;;4765657;30;20043;-78
2021/04/01 06:04:31;;;;;;;58.03;29.75;;;12.10;71.80;;;;;;4766152;30;20058;-78
2021/04/01 06:07:15;;;;;;;61.55;31.30;;;12.10;72.10;;;;;;4763951;30;20047;-78
2021/04/01 06:09:45;;;;;;;58.08;28.05;;;12.20;72.40;;;;;;4764181;30;20437;-78
2021/04/01 06:12:12;;;;;;;53.60;27.25;;;12.20;72.30;;;;;;4745791;30;20036;-78
2021/04/01 06:14:59;;;;;;;64.10;31.70;;;12.20;72.20;;;;;;4746745;30;20044;-78
2021/04/01 06:17:28;;;;;;;62.15;32.05;;;12.30;72.80;;;;;;4761877;30;20039;-78
2021/04/01 06:20:00;;;;;;;59.38;31.80;;;12.40;73.10;;;;;;4762278;30;20122;-78
2021/04/01 06:22:29;;;;;;;69.78;36.30;;;12.40;73.10;;;;;;4759605;30;20075;-78
2021/04/01 06:24:56;;;;;;;69.28;35.90;;;12.40;73.30;;;;;;4762079;30;20068;-78
2021/04/01 06:27:38;;;;;;;69.50;36.78;;;12.40;73.40;;;;;;4762682;30;20066;-78
2021/04/01 06:32:53;;;;;;;75.63;37.90;;;12.50;74.10;;;;;;4761418;30;20047;-78
2021/04/01 06:35:31;;;;;;;65.00;35.65;;;12.50;74.10;;;;;;4766028;30;20063;-78
2021/04/01 06:38:29;;;;;;;79.25;39.85;;;12.60;74.10;;;;;;4759798;30;20063;-78
2021/04/01 06:41:02;;;;;;;75.90;39.05;;;12.60;74.10;;;;;;4757536;30;20054;-79
2021/04/01 06:43:42;;;;;;;70.50;35.65;;;12.70;74.00;;;;;;4758968;30;20056;-79
2021/04/01 06:46:09;;;;;;;64.63;33.55;;;12.80;74.00;;;;;;4761624;30;20266;-78
2021/04/01 06:51:31;;;;;;;76.20;37.67;;;12.90;73.80;;;;;;4764273;30;20428;-78
2021/04/01 06:54:07;;;;;;;79.35;39.60;;;13.00;73.70;;;;;;4775292;30;20056;-76
2021/04/01 06:59:47;;;;;;;67.50;34.30;;;13.10;73.50;;;;;;4764808;30;20055;-79
2021/04/01 07:04:47;;;;;;;63.17;34.22;;;13.40;73.00;;;;;;4748155;30;20063;-78
2021/04/01 07:07:19;;;;;;;88.70;48.42;;;13.50;72.70;;;;;;4762941;30;20043;-77
2021/04/01 07:10:22;;;;;;;77.75;39.25;;;13.60;72.60;;;;;;4762647;30;20040;-78
2021/04/01 07:12:50;;;;;;;70.55;35.83;;;13.70;72.30;;;;;;4761477;30;20401;-78
2021/04/01 07:15:25;;;;;;;66.68;33.22;;;13.90;72.00;;;;;;4763900;29;20605;-77
2021/04/01 07:18:04;;;;;;;70.57;37.67;;;14.00;71.70;;;;;;4761967;30;20058;-77
2021/04/01 07:48:01;;;;;;;106.13;53.47;;;15.20;68.90;;;;;;4746878;30;20036;-78
2021/04/01 07:50:38;;;;;;;110.72;57.22;;;15.30;68.40;;;;;;4763224;30;20059;-77
2021/04/01 07:53:05;;;;;;;114.15;60.97;;;15.50;67.90;;;;;;4762475;30;20046;-76
2021/04/01 07:55:57;;;;;;;126.20;67.63;;;15.60;66.00;;;;;;4750385;30;20048;-76
2021/04/01 08:03:58;;;;;;;110.97;62.28;;;15.80;63.50;;;;;;4767111;30;20052;-78
2021/04/01 08:06:30;;;;;;;103.05;57.53;;;15.80;63.10;;;;;;4766884;30;20059;-79
2021/04/01 08:09:02;;;;;;;112.10;60.65;;;15.80;63.30;;;;;;4764521;30;20150;-78
2021/04/01 08:11:34;;;;;;;114.28;64.53;;;15.70;63.10;;;;;;4761035;30;20036;-79
2021/04/01 08:14:09;;;;;;;96.70;55.70;;;15.80;63.10;;;;;;4761665;30;20064;-79
2021/04/01 08:16:45;;;;;;;111.90;65.20;;;15.80;63.10;;;;;;4761525;30;20043;-78
2021/04/01 08:19:14;;;;;;;107.15;58.25;;;15.90;62.90;;;;;;4761989;30;20051;-78
2021/04/01 08:21:42;;;;;;;92.25;53.67;;;16.00;62.70;;;;;;4762727;30;20058;-78
2021/04/01 08:24:14;;;;;;;112.45;64.47;;;16.00;62.60;;;;;;4746583;30;20063;-78
2021/04/01 08:27:32;;;;;;;102.22;59.63;;;16.10;62.20;;;;;;4747485;30;20043;-78
2021/04/01 08:34:48;;;;;;;101.97;61.63;;;16.30;61.30;;;;;;4762324;30;20036;-77
2021/04/01 08:37:16;;;;;;;100.50;57.38;;;16.30;60.90;;;;;;4759861;30;20055;-77
2021/04/01 08:39:45;;;;;;;105.35;59.42;;;16.30;60.90;;;;;;4760839;30;20058;-77
2021/04/01 08:42:43;;;;;;;114.50;67.28;;;16.40;60.90;;;;;;4760143;30;20048;-78
2021/04/01 08:48:11;;;;;;;110.15;62.45;;;16.50;59.70;;;;;;4774392;30;20047;-77
2021/04/01 08:51:11;;;;;;;100.70;57.40;;;16.60;59.50;;;;;;4774071;30;20039;-77
2021/04/01 08:54:05;;;;;;;98.32;55.83;;;16.70;59.60;;;;;;4760312;30;20051;-77
2021/04/01 08:56:47;;;;;;;103.40;60.40;;;16.90;59.40;;;;;;4747080;30;20031;-77
2021/04/01 08:59:59;;;;;;;101.82;57.35;;;16.90;59.10;;;;;;4761867;30;20043;-77
2021/04/01 09:02:26;;;;;;;101.38;58.55;;;17.00;58.80;;;;;;4761628;30;20066;-77
2021/04/01 09:04:58;;;;;;;102.95;61.42;;;17.10;58.40;;;;;;4762607;30;20052;-77
2021/04/01 09:07:30;;;;;;;103.93;60.33;;;17.10;58.20;;;;;;4760857;30;20518;-77
2021/04/01 09:10:17;;;;;;;115.45;65.95;;;17.20;57.40;;;;;;4762712;29;20076;-77
2021/04/01 09:12:52;;;;;;;114.82;65.63;;;17.20;56.90;;;;;;4748001;30;20493;-77
2021/04/01 09:15:43;;;;;;;100.85;59.58;;;17.20;57.20;;;;;;4750832;30;20059;-77
2021/04/01 09:18:23;;;;;;;103.55;62.60;;;17.20;57.10;;;;;;4762441;30;20540;-77
2021/04/01 09:20:51;;;;;;;100.18;58.47;;;17.30;57.10;;;;;;4762491;30;20369;-77
2021/04/01 09:23:21;;;;;;;89.80;53.42;;;17.40;56.60;;;;;;4759876;30;20040;-77
2021/04/01 09:25:50;;;;;;;90.40;54.38;;;17.50;56.60;;;;;;4752990;30;20040;-77
2021/04/01 09:28:17;;;;;;;92.10;58.05;;;17.60;56.80;;;;;;4762314;30;20044;-77
2021/04/01 09:30:54;;;;;;;91.55;58.67;;;17.70;56.70;;;;;;4746041;30;20036;-77
2021/04/01 09:33:26;;;;;;;99.95;62.50;;;17.80;57.10;;;;;;4759328;30;20098;-78
2021/04/01 09:35:53;;;;;;;100.30;61.22;;;17.80;56.80;;;;;;4758847;30;20423;-78
2021/04/01 09:38:20;;;;;;;89.28;53.55;;;17.80;56.90;;;;;;4766881;30;20039;-78
2021/04/01 09:40:50;;;;;;;98.43;62.25;;;17.90;57.10;;;;;;4762313;29;20055;-78
2021/04/01 09:43:19;;;;;;;88.68;55.75;;;17.90;56.80;;;;;;4760788;30;20035;-77
2021/04/01 09:45:49;;;;;;;91.38;57.15;;;17.90;56.80;;;;;;4762987;30;20763;-77
2021/04/01 09:48:20;;;;;;;95.80;60.28;;;17.90;57.10;;;;;;4760629;30;20055;-77
2021/04/01 09:50:49;;;;;;;92.43;57.03;;;17.90;56.70;;;;;;4766505;30;20067;-77
2021/04/01 09:53:18;;;;;;;100.70;57.55;;;17.90;57.10;;;;;;4760782;30;20500;-77
2021/04/01 09:55:50;;;;;;;85.95;53.90;;;17.80;56.90;;;;;;4775087;30;20527;-77
2021/04/01 09:58:25;;;;;;;80.25;51.67;;;17.70;57.70;;;;;;4760497;30;20071;-77
2021/04/01 10:03:38;;;;;;;68.35;41.15;;;17.80;58.10;;;;;;4761535;30;20066;-77
2021/04/01 10:06:05;;;;;;;56.33;34.55;;;17.90;58.10;;;;;;4775870;29;20050;-77
2021/04/01 10:08:36;;;;;;;45.85;27.77;;;17.90;56.60;;;;;;4744775;30;20063;-77
2021/04/01 10:11:22;;;;;;;45.97;26.60;;;17.90;55.50;;;;;;4764603;30;20051;-77
2021/04/01 10:14:00;;;;;;;34.92;21.75;;;17.90;55.60;;;;;;4764480;30;20067;-76
2021/04/01 10:16:26;;;;;;;38.75;20.33;;;17.90;56.30;;;;;;4761072;30;20047;-77
2021/04/01 10:18:55;;;;;;;31.30;16.83;;;18.10;55.10;;;;;;4764659;30;20071;-77
2021/04/01 10:21:21;;;;;;;26.55;14.32;;;18.10;54.90;;;;;;4762572;30;20039;-77
2021/04/01 10:23:53;;;;;;;16.70;9.27;;;18.10;54.80;;;;;;4763003;30;20067;-78
2021/04/01 10:26:30;;;;;;;17.85;8.05;;;18.00;54.00;;;;;;4765724;30;20039;-77
2021/04/01 10:29:11;;;;;;;16.77;7.60;;;18.00;54.30;;;;;;4764265;30;20523;-77
2021/04/01 10:31:43;;;;;;;15.07;7.82;;;18.00;55.30;;;;;;4748411;30;20032;-77
2021/04/01 10:34:27;;;;;;;18.25;9.50;;;18.30;54.50;;;;;;4748524;30;20520;-77
2021/04/01 10:36:57;;;;;;;13.43;7.47;;;18.40;53.60;;;;;;4763768;30;20035;-78
2021/04/01 10:39:26;;;;;;;15.95;7.55;;;18.50;53.50;;;;;;4751720;30;20056;-78
2021/04/01 10:41:56;;;;;;;17.75;9.40;;;18.70;53.60;;;;;;4765277;29;20060;-77
2021/04/01 10:44:24;;;;;;;13.10;6.60;;;19.00;53.00;;;;;;4777936;29;20059;-77
2021/04/01 10:46:56;;;;;;;8.80;5.53;;;19.20;52.20;;;;;;4764985;30;20056;-77
2021/04/01 10:49:31;;;;;;;14.27;5.60;;;19.30;52.10;;;;;;4763656;30;20604;-77
2021/04/01 10:52:00;;;;;;;10.82;4.68;;;19.50;52.00;;;;;;4764249;30;20043;-77
2021/04/01 10:54:45;;;;;;;11.10;4.18;;;19.90;51.30;;;;;;4764250;30;20608;-77
2021/04/01 10:57:14;;;;;;;9.20;3.97;;;20.10;50.10;;;;;;4738922;30;20051;-77
2021/04/01 10:59:42;;;;;;;7.07;2.83;;;20.30;50.10;;;;;;4777940;30;20047;-77
2021/04/01 11:02:16;;;;;;;8.77;2.97;;;20.60;50.10;;;;;;4776175;29;20053;-77
2021/04/01 11:04:54;;;;;;;8.38;3.00;;;20.80;48.60;;;;;;4761975;30;20086;-77
2021/04/01 11:07:21;;;;;;;9.20;3.20;;;20.90;48.50;;;;;;4763759;30;20066;-77
2021/04/01 11:09:50;;;;;;;7.00;2.85;;;21.10;47.70;;;;;;4764778;30;20036;-77
2021/04/01 11:12:21;;;;;;;7.15;2.58;;;21.20;47.50;;;;;;4762449;30;20062;-77
2021/04/01 11:14:53;;;;;;;7.28;2.20;;;21.30;47.40;;;;;;4763756;30;20067;-77
2021/04/01 11:17:22;;;;;;;5.95;1.88;;;21.40;46.40;;;;;;4765399;30;20509;-76
2021/04/01 11:19:52;;;;;;;10.15;2.60;;;21.60;46.50;;;;;;4766030;30;20514;-76
2021/04/01 11:22:19;;;;;;;10.23;1.92;;;21.80;45.90;;;;;;4777190;29;20047;-77
2021/04/01 11:24:46;;;;;;;7.07;2.05;;;21.90;45.40;;;;;;4777899;29;20657;-77
2021/04/01 11:27:19;;;;;;;9.18;2.20;;;22.00;45.30;;;;;;4748444;30;20056;-77
2021/04/01 11:29:57;;;;;;;10.23;1.55;;;22.20;45.10;;;;;;4763991;30;20075;-77
2021/04/01 11:32:29;;;;;;;7.93;2.05;;;22.40;44.80;;;;;;4765681;30;20487;-77
2021/04/01 11:34:58;;;;;;;6.25;1.30;;;22.40;43.40;;;;;;4760024;30;20503;-77
2021/04/01 11:37:35;;;;;;;10.77;1.70;;;22.20;44.10;;;;;;4764123;30;20068;-77
2021/04/01 11:40:07;;;;;;;7.93;1.40;;;22.20;43.70;;;;;;4763979;30;20043;-77
2021/04/01 11:42:34;;;;;;;7.13;1.75;;;22.10;44.30;;;;;;4763763;30;20044;-77
2021/04/01 11:45:04;;;;;;;14.50;2.10;;;22.20;44.20;;;;;;4761521;30;20069;-77
2021/04/01 11:47:32;;;;;;;6.28;1.13;;;22.50;44.10;;;;;;4775467;30;20070;-77
2021/04/01 11:50:04;;;;;;;8.30;1.92;;;22.70;43.90;;;;;;4777406;30;20047;-78
2021/04/01 11:52:31;;;;;;;;;;;22.90;43.50;;;;;;4764489;30;20044;-78
2021/04/01 11:55:11;;;;;;;8.60;1.38;;;23.20;42.70;;;;;;4777891;29;19932;-78
2021/04/01 11:57:43;;;;;;;6.88;1.38;;;23.30;42.10;;;;;;4776102;30;20063;-77
2021/04/01 12:00:22;;;;;;;8.38;1.63;;;23.60;41.70;;;;;;4747915;30;20043;-77
2021/04/01 12:02:59;;;;;;;8.52;1.55;;;23.60;41.60;;;;;;4775793;30;20050;-76
2021/04/01 12:05:28;;;;;;;10.10;1.90;;;23.70;41.30;;;;;;4764491;29;20063;-77
2021/04/01 12:07:55;;;;;;;7.03;1.77;;;23.50;41.20;;;;;;4777276;30;20044;-77
2021/04/01 12:10:23;;;;;;;14.45;1.85;;;23.40;41.70;;;;;;4777182;30;20401;-77
2021/04/01 12:12:54;;;;;;;7.88;1.40;;;23.40;41.40;;;;;;4760703;30;20071;-78
2021/04/01 12:15:39;;;;;;;9.73;1.50;;;23.50;41.60;;;;;;4735311;30;20040;-78
2021/04/01 12:18:09;;;;;;;6.82;1.30;;;23.50;41.60;;;;;;4777764;29;20289;-77
2021/04/01 12:20:38;;;;;;;12.73;1.98;;;23.50;41.50;;;;;;4764937;30;20043;-78
2021/04/01 12:23:21;;;;;;;10.02;1.90;;;23.60;41.40;;;;;;4763526;30;20389;-79
2021/04/01 12:25:49;;;;;;;8.30;1.30;;;23.70;41.20;;;;;;4761290;30;20043;-79
2021/04/01 12:28:20;;;;;;;8.23;1.20;;;23.70;40.80;;;;;;4761895;30;20369;-80
2021/04/01 12:30:49;;;;;;;10.48;1.55;;;23.80;40.90;;;;;;4762315;30;20059;-77
2021/04/01 12:33:19;;;;;;;7.03;3.35;;;23.90;40.30;;;;;;4760327;30;20078;-77
2021/04/01 12:35:52;;;;;;;8.73;3.95;;;23.90;39.80;;;;;;4762217;30;20507;-77
2021/04/01 12:38:32;;;;;;;7.80;3.05;;;23.80;39.60;;;;;;4761000;30;20066;-76
2021/04/01 12:41:08;;;;;;;5.57;0.88;;;23.50;39.70;;;;;;4760933;30;20055;-75
2021/04/01 12:43:37;;;;;;;5.53;0.90;;;23.40;39.90;;;;;;4760377;30;20044;-77
2021/04/01 12:46:04;;;;;;;4.45;0.88;;;23.60;40.00;;;;;;4762885;30;20070;-76
2021/04/01 12:48:38;;;;;;;7.68;1.48;;;24.00;40.00;;;;;;4763364;30;20047;-76
2021/04/01 12:51:06;;;;;;;7.15;0.90;;;24.30;38.80;;;;;;4763173;30;20051;-76
2021/04/01 12:53:36;;;;;;;7.07;1.00;;;24.20;38.90;;;;;;4760406;30;20539;-76
2021/04/01 12:56:16;;;;;;;8.82;1.50;;;24.20;39.50;;;;;;4762773;30;20048;-76
2021/04/01 13:04:10;;;;;;;5.53;1.50;;;24.40;39.50;;;;;;4760025;30;20401;-76
2021/04/01 13:11:52;;;;;;;6.78;1.27;;;25.30;38.20;;;;;;4760065;30;20048;-76
2021/04/01 13:14:24;;;;;;;6.65;1.00;;;25.40;37.50;;;;;;4745879;30;20457;-76
2021/04/01 13:16:51;;;;;;;5.68;1.08;;;25.40;37.00;;;;;;4731790;30;20032;-77
2021/04/01 13:19:23;;;;;;;11.23;5.30;;;25.60;37.10;;;;;;4760466;30;20407;-77
2021/04/01 13:24:37;;;;;;;5.25;1.70;;;25.90;35.90;;;;;;4761861;30;20043;-76
2021/04/01 13:27:12;;;;;;;3.38;0.80;;;25.90;35.60;;;;;;4752223;30;20082;-77
2021/04/01 13:29:42;;;;;;;7.10;1.10;;;26.00;35.30;;;;;;4760682;30;20052;-78
2021/04/01 13:32:14;;;;;;;4.80;0.68;;;26.10;34.70;;;;;;4730849;30;20047;-78
2021/04/01 13:35:01;;;;;;;6.85;1.10;;;26.00;34.80;;;;;;4746841;30;20074;-79
2021/04/01 13:40:31;;;;;;;7.47;0.80;;;25.70;33.70;;;;;;4741365;30;20048;-78
2021/04/01 13:43:02;;;;;;;4.32;0.75;;;25.80;33.60;;;;;;4729176;30;20397;-78
2021/04/01 13:45:28;;;;;;;6.88;0.82;;;26.10;33.70;;;;;;4726208;30;20054;-78
2021/04/01 13:48:05;;;;;;;5.30;0.90;;;25.90;32.80;;;;;;4749160;30;20057;-76
2021/04/01 13:50:37;;;;;;;6.35;1.05;;;25.60;33.10;;;;;;4762766;30;20056;-77
2021/04/01 13:55:33;;;;;;;9.10;4.80;;;25.40;33.00;;;;;;4760899;30;20044;-77
2021/04/01 14:09:18;;;;;;;4.15;0.63;;;25.70;30.40;;;;;;4761394;30;20054;-76
2021/04/01 14:11:44;;;;;;;6.85;0.90;;;25.50;29.90;;;;;;4760996;30;20047;-76
2021/04/01 14:14:11;;;;;;;6.80;0.70;;;25.30;29.10;;;;;;4759619;30;20286;-76
2021/04/01 14:16:41;;;;;;;10.00;1.40;;;24.90;29.50;;;;;;4763142;29;20062;-76
2021/04/01 14:19:08;;;;;;;10.50;1.13;;;23.90;30.30;;;;;;4780279;29;20495;-75
2021/04/01 14:21:35;;;;;;;4.18;0.80;;;22.50;32.00;;;;;;4776385;30;21336;-75
2021/04/01 14:24:14;;;;;;;5.63;0.80;;;21.20;34.30;;;;;;4792094;30;20048;-76
2021/04/01 14:26:48;;;;;;;5.75;0.68;;;20.20;36.00;;;;;;4740138;30;20050;-76
2021/04/01 14:29:15;;;;;;;5.05;0.57;;;19.50;37.70;;;;;;4762818;30;20389;-75
2021/04/01 14:31:42;;;;;;;6.43;0.80;;;19.00;38.70;;;;;;4745610;30;20043;-75
2021/04/01 14:34:09;;;;;;;4.30;0.70;;;18.70;39.60;;;;;;4758211;30;20044;-77
2021/04/01 14:36:40;;;;;;;10.07;0.98;;;18.30;40.20;;;;;;4761506;30;20036;-77
2021/04/01 14:39:07;;;;;;;7.30;1.10;;;18.00;41.00;;;;;;4775018;29;20055;-77
2021/04/01 14:41:42;;;;;;;12.80;1.00;;;17.70;41.80;;;;;;4773380;30;20040;-77
2021/04/01 14:44:20;;;;;;;9.02;1.38;;;17.50;42.20;;;;;;4759712;30;20066;-77
2021/04/01 14:46:48;;;;;;;7.70;0.95;;;17.30;42.70;;;;;;4759621;30;20043;-77
2021/04/01 14:49:18;;;;;;;7.78;1.05;;;17.00;43.00;;;;;;4759194;30;20568;-77
2021/04/01 14:51:46;;;;;;;10.02;1.10;;;16.80;43.70;;;;;;4759419;30;20408;-77
2021/04/01 14:54:17;;;;;;;9.02;1.10;;;16.70;44.20;;;;;;4744638;30;20515;-77